Partenaires institutionnels


Sponsors

Expert Travel

85 rue Neuve – 6280 Gerpinnes - Belgium

Tél : 00-32-71-22.18.22

Email : info@expert-travel.be

www.expert-travel.be

060/34.00.00
www.octaplus.be
info.mariembourg@octaplus.be
COURSE AUX FLAMBEAUX
20:01:55 183 classés 10,000 km
POS DOS SEXE NOM CLUB TEMPS REEL VIT MOY CAT PL. PTS
1 154 LAHBIB MEHDI RESC 00:31:05 00:31:05 19,303 03:07 SEN H 1 1000
2 179 POLLET LUCAS CHASTRÈS CYCLING TEAM 00:32:18 00:32:17 18,585 03:14 SEN H 2 963
3 50 BAÏOLET NICOLAS ACCO 00:33:46 00:33:45 17,778 03:23 SEN H 3 921
4 148 GROENNE ELIAN CABW 00:34:37 00:34:37 17,333 03:28 CAD H 1 898
5 113 BOURGEOIS SÉBASTIEN TRAKKS 00:34:38 00:34:38 17,324 03:28 V1 1 897
6 222 LEBLANC RENAUD 00:34:41 00:34:40 17,308 03:28 SEN H 4 897
7 180 PONCELET XAVIER TRAKKS 00:34:53 00:34:53 17,200 03:29 V1 2 891
8 158 LESOIL MATHIAS ESM 00:35:29 00:35:27 16,925 03:33 SEN H 5 877
9 138 EVRATS MATTHIAS PFA 00:36:20 00:36:19 16,521 03:38 SEN H 6 856
10 65 BAÏOLET CHRISTOPHE TRAKKS 00:36:23 00:36:23 16,491 03:38 SEN H 7 854
11 40 RIFFLART DAMIEN JTRR 00:36:29 00:36:26 16,468 03:39 SEN H 8 853
12 240 JYMANS NICO 00:36:52 00:36:51 16,282 03:41 SEN H 9 844
13 210 GOOSSENS JULIEN CHAMPIONS RACING 00:37:06 00:37:05 16,180 03:43 SEN H 10 838
14 244 LACAILLE LIONEL AC FRONTIERES 00:37:54 00:37:48 15,873 03:47 SEN H 11 822
15 246 RENARD YVES 00:37:59 00:37:53 15,838 03:47 V2 1 821
16 161 F MALEVÉ BÉRENGÈRE TRAKKS 00:38:00 00:38:00 15,789 03:48 A1 1 818
17 134 DEWEVER JOHNNY 00:38:04 00:38:02 15,776 03:48 V1 3 817
18 174 PAMART GUILLAUME HARCY (FRANCE) 00:38:37 00:38:36 15,544 03:52 SEN H 12 805
19 122 COLON JÉRÔME TRAKKS 00:38:49 00:38:48 15,464 03:53 SEN H 13 801
20 104 BECUE RÉMY RCABW 00:38:55 00:38:52 15,437 03:53 CAD H 2 800
21 165 F MARTENS CATHERINE CABW O2MAX 00:38:59 00:38:59 15,391 03:54 A1 2 797
22 198 VAN WYNSBERGHE CLEMENT RCABW 00:38:59 00:38:58 15,398 03:54 xH 1 798
23 53 VAN GHELUWE RÉMI JACO 00:39:05 00:39:04 15,358 03:54 SEN H 14 796
24 109 BOREUX DAMIEN JACO 00:39:05 00:39:05 15,352 03:55 SEN H 15 795
25 177 PIETREMENT PASCAL 00:39:05 00:38:58 15,398 03:54 V1 4 798
26 178 PIRMEZ JOHAN 00:39:06 00:39:03 15,365 03:54 SEN H 16 796
27 72 HUET LUDOVIC TRAKKS 00:39:10 00:39:10 15,319 03:55 SEN H 17 794
28 81 THOMAS DOMINIC ACCO 00:39:13 00:39:13 15,300 03:55 V2 2 793
29 90 DE PESTEL BLAISE 00:39:23 00:39:20 15,254 03:56 SEN H 18 790
30 221 MINET DENIS VIROSPORT 00:39:36 00:39:29 15,196 03:57 V1 5 787
31 201 WIECZOR KEVIN ESM 00:39:38 00:39:37 15,145 03:58 SEN H 19 785
32 220 ROGGE STEPHANE FAIREBEL 00:39:48 00:39:46 15,088 03:59 V1 6 782
33 82 LECLERCQ GAËTAN TRAILERS DES FAGNES 00:39:49 00:39:43 15,107 03:58 SEN H 20 783
34 35 PESTIAUX GRÉGORY PEARTEAM 00:39:57 00:39:57 15,019 04:00 SEN H 21 778
35 119 CHARRIERE SEBASTIEN GRAC RENWEZ 00:40:03 00:40:01 14,994 04:00 SEN H 22 777
36 219 DUBOIS JULIEN XTRIATHLON.COM 00:40:32 00:40:30 14,815 04:03 SEN H 23 767
37 62 HASBANI LAHOUCINE JACO 00:41:01 00:41:00 14,634 04:06 JUN H 1 758
38 100 MAUDOUX LIONEL JACO 00:41:18 00:41:18 14,528 04:08 SEN H 24 753
39 160 F LORIAUX ÉMILIE TRAKKS 00:41:24 00:41:24 14,493 04:08 SEN F 1 751
40 25 MARTIN LIONEL HARCY (FRANCE) 00:41:35 00:41:34 14,435 04:09 SEN H 25 748
41 9 NICOLAS SÉBASTIEN JACO 00:41:39 00:41:32 14,446 04:09 V1 7 748
42 51 GUILLAUME YVES JACO 00:41:48 00:41:46 14,366 04:11 V2 3 744
43 89 CORDEWENER ALAIN AC FRONTIERES 00:41:50 00:41:47 14,360 04:11 V2 4 744
44 193 TRONÇON BENOIT ES PETIGNY 00:41:56 00:41:55 14,314 04:12 SEN H 26 742
45 103 BASTIN JONATHAN ENTREPARENTHÈSES/OCAN 00:42:04 00:42:04 14,263 04:12 SEN H 27 739
46 57 POUCET FABRICE ACCO 00:42:11 00:42:06 14,252 04:13 SEN H 28 738
47 112 BOURDON REMY 00:42:40 00:42:36 14,084 04:16 V1 8 730
48 159 LIBOIS MARC RAPTOR TEAM 00:43:06 00:42:59 13,959 04:18 V1 9 723
49 211 BRICE JEAN-MARIE 00:43:06 00:43:04 13,932 04:18 V2 5 722
50 243 BOUREVIAN ANTOINE 00:43:06 00:43:02 13,943 04:18 SEN H 29 722
51 299 SISOMBATH ADRIEN 00:43:10 00:43:09 13,905 04:19 SEN H 30 720
52 167 MATHIEU JEAN-FRANCOIS JOGGING CLUB PHILIPPEVILLE 00:43:15 00:43:07 13,916 04:19 V1 10 721
53 252 LAMBERT CHRISTOPHE 00:43:19 00:43:18 13,857 04:20 SEN H 31 718
54 16 GALICHET STÉPHANE ROCROY SPORTS NATURE 00:43:29 00:43:24 13,825 04:20 SEN H 32 716
55 186 SOUPART CHARLES CERFONTAINE 00:43:45 00:43:36 13,761 04:22 CAD H 3 713
56 115 BRAIBANT KEVIN ORS 00:43:47 00:43:44 13,719 04:22 SEN H 33 711
57 128 F DELETRAIN NATHALIE ESM 00:43:50 00:43:44 13,719 04:22 A1 3 711
58 78 NUYTTEN FRÉDÉRIC ACCO 00:43:53 00:43:51 13,683 04:23 V1 11 709
59 75 LEJEUNE PHILIPPE JACO 00:43:56 00:43:49 13,693 04:23 V2 6 709
60 224 F ARNO LUCIE ESM 00:44:07 00:44:06 13,605 04:25 JUN F 1 705
61 139 FERY ETIENNE RAPTOR TEAM 00:44:29 00:44:22 13,524 04:26 V1 12 701
62 238 GEORGES LAURENT 00:44:32 00:44:29 13,488 04:27 V2 7 699
63 242 CORDEWENER JOEL AC FRONTIERES 00:44:40 00:44:30 13,483 04:27 V1 13 699
64 151 F HAMOIR KAREN JOGGING HERMETON 00:44:45 00:44:42 13,423 04:28 A1 4 695
65 116 BRUNEBARBE JOËL ESM 00:44:49 00:44:45 13,408 04:29 V1 14 695
66 176 PETIT ANTOINE AC FRONTIERES 00:44:52 00:44:41 13,428 04:28 SEN H 34 696
67 14 DUJARDIN ANTOINE ROCROY SPORTS NATURE 00:45:06 00:45:02 13,323 04:30 JUN H 2 690
68 156 LENOIR CYRIL 00:45:07 00:45:00 13,333 04:30 SEN H 35 691
69 2 AUBERT SERGE CHUDONDORGANES 00:45:10 00:45:08 13,294 04:31 V3 1 689
70 126 DECLERCQ GUY 00:45:10 00:45:08 13,294 04:31 V2 8 689
71 175 PEMERS GEOFFREY BELFIUS 00:45:17 00:45:14 13,265 04:31 SEN H 36 687
72 74 LABILLOY LAURENT AC FRONTIERE 00:45:21 00:45:14 13,265 04:31 V2 9 687
73 226 VANOCAUBERGHE DANY 00:45:22 00:45:08 13,294 04:31 SEN H 37 689
74 227 F THOMAS LAURIE 00:45:24 00:45:10 13,284 04:31 SEN F 2 688
75 60 THOMAS PAUL 00:45:25 00:45:25 13,211 04:33 V3 2 684
76 59 GOFFIN PASCAL JTRR 00:45:31 00:45:20 13,235 04:32 V2 10 686
77 31 MAURENNE FRANCOIS 00:45:34 00:45:26 13,206 04:33 V1 15 684
78 123 COLON YOHAN TRAKKS 00:45:45 00:45:41 13,134 04:34 SEN H 38 680
79 124 CROWET VIVIAN 00:45:45 00:45:40 13,139 04:34 SEN H 39 681
80 250 VAN EECKE JULIEN 00:45:47 00:45:43 13,124 04:34 SEN H 40 680
81 91 DE PESTEL HERVÉ 00:46:00 00:45:58 13,053 04:36 V2 11 676
82 163 MARCHAL LUC 00:46:02 00:46:00 13,043 04:36 V2 12 676
83 195 VAN DE STEENE MARTIN 00:46:23 00:46:21 12,945 04:38 JUN H 3 671
84 1 F FOULON MARIE-CHRISTINE CRAZY BIKERS 00:46:29 00:46:24 12,931 04:38 A3 1 670
85 157 LESCEUX JOSE JACO 00:46:39 00:46:32 12,894 04:39 V1 16 668
86 170 MORAUX SAMUËL 00:46:45 00:46:36 12,876 04:40 V2 13 667
87 45 CROWET VALERY 00:47:13 00:47:08 12,730 04:43 SEN H 41 659
88 64 GOULARD YOHAN TRAILERS DES FAGNES 00:47:26 00:47:20 12,676 04:44 SEN H 42 657
89 44 WULLAERT MAXIME TDF 00:47:29 00:47:23 12,663 04:44 SEN H 43 656
90 39 DEVILLE PHILIPPE J.T.R.R. 00:47:35 00:47:32 12,623 04:45 V3 3 654
91 135 DUJARDIN SAMUEL JTRR 00:47:43 00:47:33 12,618 04:45 SEN H 44 654
92 223 REGNIER MICHEL JTRR 00:47:44 00:47:38 12,596 04:46 V2 14 653
93 208 CHAMPAGNE LAURENT 00:47:57 00:47:57 12,513 04:48 V1 17 648
94 125 DE SMET FRÉDÉRIC A.R. VAUBAN CHARLEROI 00:48:00 00:47:57 12,513 04:48 V1 18 648
95 247 OSTYN PHILIPPE JACO 00:48:05 00:47:52 12,535 04:47 V2 15 649
96 667 NICOLAS BENJAMIN 00:48:16 00:48:00 12,500 04:48 xH 2 648
97 196 VAN LERBERGHE DAVID CCSTC 00:48:23 00:48:09 12,461 04:49 V1 19 646
98 130 DETRE DOMINIQUE JCPMF CHIMAY 00:48:27 00:48:19 12,418 04:50 V1 20 643
99 131 DETRE PASCAL JCPMF CHIMAY 00:48:27 00:48:19 12,418 04:50 V2 16 643
100 183 RUSSOTTO VALERIO 00:48:53 00:48:39 12,333 04:52 SEN H 45 639
101 184 RUSSOTTO VINCENZO 00:48:56 00:48:42 12,320 04:52 V1 21 638
102 80 PARISELLE JACKY JTR 00:49:02 00:48:56 12,262 04:54 V3 4 635
103 232 LAHR PHILIPPE JTRR 00:49:15 00:49:15 12,183 04:56 V1 22 631
104 189 SOUPART PAUL CERFONTAINE 00:49:16 00:49:05 12,224 04:55 V2 17 633
105 98 F D'HULSTER MURIEL JACCO 00:49:26 00:49:21 12,158 04:56 A3 2 630
106 300 SOKAJ MICHEL LA THURE 00:49:27 00:49:23 12,150 04:56 V3 5 629
107 6 F CAPITAINE STÉPHANIE JTRR 00:49:29 00:49:29 12,125 04:57 A1 5 628
108 182 RIFFLART MATHIEU JTRR 00:49:55 00:49:51 12,036 04:59 SEN H 46 624
109 88 BEGAUX JEAN JTRR 00:49:57 00:49:48 12,048 04:59 V3 6 624
110 661 HENRARD ROMAIN 00:50:02 00:50:02 11,992 05:00 SEN H 47 621
111 254 DURSIN LOGAN 00:50:19 00:50:19 11,924 05:02 SEN H 48 618
112 56 F FOSTY FRANCETTE 00:50:20 00:50:13 11,948 05:01 A3 3 619
113 120 F COLLET CHRISTELLE JACO 00:50:29 00:50:17 11,932 05:02 A1 6 618
114 204 LE MAIRE THOMAS 00:50:51 00:50:36 11,858 05:04 SEN H 49 614
115 173 NICOLAS JEROME 00:50:52 00:50:32 11,873 05:03 SEN H 50 615
116 194 VAMBRENSEGEM GUILLAUME HARCY (FRANCE) 00:51:03 00:51:03 11,753 05:06 SEN H 51 609
117 251 DOCK LARRY 00:51:06 00:50:52 11,796 05:05 V1 23 611
118 237 F MIHOUB NORA JACO 00:51:07 00:50:53 11,792 05:05 A1 7 611
119 49 HOUZE THIERRY JTRR 00:51:20 00:51:07 11,738 05:07 V1 24 608
120 43 F LOBET LUDIVINE GRANNY/SHARKS 00:51:23 00:51:18 11,696 05:08 SEN F 3 606
121 192 F TORREKENS ISABELLE SHARKS 00:51:41 00:51:28 11,658 05:09 A2 1 604
122 84 F WIAME ANNE FAIREBEL 00:51:56 00:51:44 11,598 05:10 A1 8 601
123 140 GALLOIS EERIC AC-FRONTIERES 00:52:10 00:51:59 11,542 05:12 V1 25 598
124 15 ESPREUX SÉBASTIEN TRAILERS DES FAGNES 00:52:16 00:52:10 11,502 05:13 SEN H 52 596
125 213 F GANY PASCALE JACO 00:52:22 00:52:09 11,505 05:13 A2 2 596
126 92 F DE PESTEL SARAH 00:52:35 00:52:32 11,421 05:15 JUN F 2 592
127 169 METENS MARC 00:52:43 00:52:24 11,450 05:14 V2 18 593
128 255 F GARDIN HELENE 00:52:47 00:52:41 11,389 05:16 A2 3 590
129 197 F VAN MALLEGHEM STÉPHANIE RAPTOR TEAM 00:52:55 00:52:47 11,367 05:17 A1 9 589
130 209 BOREUX MICHAEL RAPTOR 00:52:57 00:52:50 11,356 05:17 V1 26 588
131 216 F DESTRES INGRID JACO 00:53:18 00:53:06 11,299 05:19 A1 10 585
132 19 GRAVIER ALAIN JCHR 00:53:54 00:53:44 11,166 05:22 V2 19 578
133 217 F DETRIXHE JEHANNE JACO 00:54:01 00:53:49 11,149 05:23 A2 4 578
134 32 SERVAIS THIBAUT TRAILERS DES FAGNES 00:54:01 00:53:54 11,132 05:23 SEN H 53 577
135 150 F GUTEWIEZ FANNY GRAC RENWEZ 00:54:03 00:53:57 11,121 05:24 SEN F 4 576
136 108 BOREL CYRIL HARCY (FRANCE) 00:54:04 00:54:04 11,097 05:24 SEN H 54 575
137 20 F GRAVIER PAULINE JCHR 00:54:18 00:54:09 11,080 05:25 SEN F 5 574
138 162 MAQUART FLORENT 00:54:29 00:54:11 11,073 05:25 V1 27 574
139 47 TONDA SERGE JACO 00:54:38 00:54:30 11,009 05:27 V4 1 570
140 212 KADER BERNARD 00:54:45 00:54:45 10,959 05:29 SEN H 55 568
141 171 F MYANT NATHALIE CERFONTAINE 00:55:02 00:54:51 10,939 05:29 A2 5 567
142 188 SOUPART LÉOPOLD CERFONTAINE 00:55:02 00:54:51 10,939 05:29 CAD H 4 567
143 218 SOENEN JOSE 00:55:07 00:54:49 10,946 05:29 V3 7 567
144 225 DUBUC RENAUD 00:55:33 00:55:19 10,847 05:32 SEN H 56 562
145 63 F PIRE NATHALIE SHARKS - J.T.R.R. 00:56:04 00:55:51 10,743 05:35 A2 6 557
146 207 F LEMAIRE DOMINIQUE SHARKS 00:56:04 00:55:49 10,749 05:35 A1 11 557
147 215 VANDERHEYDEN SAMUEL SHARKS 00:56:06 00:55:52 10,740 05:35 SEN H 57 556
148 97 F DE PESTEL COLINE 00:56:25 00:56:17 10,660 05:38 SEN F 6 552
149 638 HODX JEAN-MARC 00:56:27 00:56:17 10,660 05:38 V2 20 552
150 639 F MORKEY CORINE 00:56:38 00:56:28 10,626 05:39 xF 1 550
151 239 FLEURY FRANCIS 00:58:05 00:57:57 10,354 05:48 V2 21 536
152 241 F LEFOUR FLORENCE JACO 00:58:09 00:57:48 10,381 05:47 A2 7 538
153 245 LECUYER FREDERIC 00:58:09 00:57:48 10,381 05:47 V1 28 538
154 114 F BRAEM ANAIS 00:58:31 00:58:24 10,274 05:50 SEN F 7 532
155 203 F VANDEPUTTE JULIEN WALCOURSE 00:58:37 00:58:20 10,286 05:50 A1 12 533
156 236 DUBUS LAURENT 00:58:37 00:58:19 10,289 05:50 SEN H 58 533
157 231 DELVALLOD JULIEN PETIGNY 00:58:37 00:58:19 10,289 05:50 SEN H 59 533
158 102 F BARBIEUX FLORENCE 00:58:40 00:58:20 10,286 05:50 SEN F 8 533
159 249 DROPSY QUENTIN 00:59:02 00:58:47 10,207 05:53 SEN H 60 529
160 248 F MAGOTTEAUX REGGIE 00:59:04 00:58:49 10,201 05:53 SEN F 9 528
161 187 F SOUPART CLAIRE CERFONTAINE 00:59:07 00:58:57 10,178 05:54 SEN F 10 527
162 253 POUCET HUGO 00:59:07 00:58:58 10,175 05:54 SEN H 61 527
163 206 F PAQUET PERRINE 00:59:27 00:59:19 10,115 05:56 JUN F 3 524
164 205 F HAAS CLARA 00:59:27 00:59:21 10,110 05:56 JUN F 4 524
165 152 HANOTEAUX RAYMOND LA THURE 00:59:30 00:59:16 10,124 05:56 V4 2 524
166 234 F VANDEHAUTE BRIGITTE AC FRONTIERES 00:59:37 00:59:26 10,095 05:57 A2 8 523
167 136 F DUJEUX JULIE CABW 01:00:15 01:00:00 10,000 06:00 SEN F 11 518
168 164 MARMIGNON ARY POWERCROSS 5600 01:00:15 01:00:00 10,000 06:00 SEN H 62 518
169 145 F GILLES DOLORES 01:00:52 01:00:38 9,896 06:04 A1 13 513
170 147 F GRAMBRASAU AURELIE 01:00:52 01:00:38 9,896 06:04 SEN F 12 513
171 68 F GEORGE VALÉRIE JACO 01:00:58 01:00:50 9,863 06:05 A2 9 511
172 185 SLANINKA NICOLAS 01:01:48 01:01:27 9,764 06:09 SEN H 63 506
173 172 NICOLAS ARNAUD 01:01:49 01:01:29 9,759 06:09 SEN H 64 506
174 230 GILLES PASCAL JTRR 01:01:58 01:01:49 9,706 06:11 V2 22 503
175 229 F MICHAUX FRANCOISE JTRR 01:02:00 01:01:51 9,701 06:11 A2 10 503
176 85 F PAQUET DELPHINE JTRR 01:02:20 01:02:08 9,657 06:13 SEN F 13 500
177 166 F MASSARD CHRISTELLE JTRR 01:02:21 01:02:09 9,654 06:13 A1 14 500
178 110 F BOUILLOT CECILE TRAILERS DES FAGNES 01:02:27 01:02:13 9,644 06:13 A3 4 500
179 95 GUILLAUME JULIEN SHARKS 01:04:59 01:04:46 9,264 06:29 SEN H 65 480
180 94 F GOUTIÈRE MARIE 01:04:59 01:04:46 9,264 06:29 SEN F 14 480
181 146 F GILLET MÉLANIE 01:06:09 01:05:49 9,116 06:35 SEN F 15 472
182 129 DENIS CHRISTIAN ESM 01:08:50 01:08:41 8,736 06:52 V3 8 453
183 144 GERMY PASCAL ESM 01:08:50 01:08:42 8,734 06:52 V1 29 452